sensor_id;sensor_type;location;lat;lon;timestamp;P1;durP1;ratioP1;P2;durP2;ratioP2
1154;SDS011;566;48.414;9.118;2022-09-09T00:01:58;3.38;;;1.23;;
1154;SDS011;566;48.414;9.118;2022-09-09T00:04:32;5.82;;;1.35;;
1154;SDS011;566;48.414;9.118;2022-09-09T00:07:19;4.38;;;1.55;;
1154;SDS011;566;48.414;9.118;2022-09-09T00:15:22;6.70;;;1.10;;
1154;SDS011;566;48.414;9.118;2022-09-09T00:23:00;6.60;;;1.13;;
1154;SDS011;566;48.414;9.118;2022-09-09T00:25:40;6.97;;;1.27;;
1154;SDS011;566;48.414;9.118;2022-09-09T00:28:19;5.80;;;1.45;;
1154;SDS011;566;48.414;9.118;2022-09-09T00:30:48;3.83;;;1.20;;
1154;SDS011;566;48.414;9.118;2022-09-09T00:33:20;7.97;;;1.30;;
1154;SDS011;566;48.414;9.118;2022-09-09T00:35:49;6.03;;;1.40;;
1154;SDS011;566;48.414;9.118;2022-09-09T00:38:28;4.88;;;1.40;;
1154;SDS011;566;48.414;9.118;2022-09-09T00:44:30;4.32;;;1.33;;
1154;SDS011;566;48.414;9.118;2022-09-09T00:50:21;4.47;;;1.20;;
1154;SDS011;566;48.414;9.118;2022-09-09T00:55:16;4.85;;;1.58;;
1154;SDS011;566;48.414;9.118;2022-09-09T00:57:44;3.38;;;1.40;;
1154;SDS011;566;48.414;9.118;2022-09-09T01:08:10;5.65;;;1.38;;
1154;SDS011;566;48.414;9.118;2022-09-09T01:10:55;4.30;;;1.30;;
1154;SDS011;566;48.414;9.118;2022-09-09T01:13:24;4.18;;;1.15;;
1154;SDS011;566;48.414;9.118;2022-09-09T01:15:59;5.15;;;1.38;;
1154;SDS011;566;48.414;9.118;2022-09-09T01:18:39;5.60;;;1.30;;
1154;SDS011;566;48.414;9.118;2022-09-09T01:26:41;4.53;;;1.27;;
1154;SDS011;566;48.414;9.118;2022-09-09T01:29:09;6.13;;;1.38;;
1154;SDS011;566;48.414;9.118;2022-09-09T01:31:52;6.72;;;1.40;;
1154;SDS011;566;48.414;9.118;2022-09-09T01:34:18;4.63;;;1.20;;
1154;SDS011;566;48.414;9.118;2022-09-09T01:37:08;5.93;;;1.70;;
1154;SDS011;566;48.414;9.118;2022-09-09T01:39:31;4.50;;;1.20;;
1154;SDS011;566;48.414;9.118;2022-09-09T01:41:59;5.78;;;1.30;;
1154;SDS011;566;48.414;9.118;2022-09-09T01:44:25;7.00;;;1.30;;
1154;SDS011;566;48.414;9.118;2022-09-09T01:46:51;5.47;;;1.38;;
1154;SDS011;566;48.414;9.118;2022-09-09T01:49:17;6.70;;;1.70;;
1154;SDS011;566;48.414;9.118;2022-09-09T01:51:43;6.55;;;1.80;;
1154;SDS011;566;48.414;9.118;2022-09-09T01:54:14;5.50;;;1.20;;
1154;SDS011;566;48.414;9.118;2022-09-09T01:59:31;5.07;;;1.30;;
1154;SDS011;566;48.414;9.118;2022-09-09T02:02:11;7.20;;;1.60;;
1154;SDS011;566;48.414;9.118;2022-09-09T02:04:44;5.80;;;1.15;;
1154;SDS011;566;48.414;9.118;2022-09-09T02:09:52;5.63;;;1.30;;
1154;SDS011;566;48.414;9.118;2022-09-09T02:12:34;7.13;;;1.60;;
1154;SDS011;566;48.414;9.118;2022-09-09T02:15:05;4.85;;;1.60;;
1154;SDS011;566;48.414;9.118;2022-09-09T02:17:37;3.67;;;1.38;;
1154;SDS011;566;48.414;9.118;2022-09-09T02:20:08;3.85;;;1.60;;
1154;SDS011;566;48.414;9.118;2022-09-09T02:22:38;5.90;;;1.77;;
1154;SDS011;566;48.414;9.118;2022-09-09T02:25:09;8.90;;;1.52;;
1154;SDS011;566;48.414;9.118;2022-09-09T02:27:40;4.93;;;1.25;;
1154;SDS011;566;48.414;9.118;2022-09-09T02:30:13;5.65;;;1.40;;
1154;SDS011;566;48.414;9.118;2022-09-09T02:32:39;4.05;;;1.33;;
1154;SDS011;566;48.414;9.118;2022-09-09T02:35:12;5.63;;;1.58;;
1154;SDS011;566;48.414;9.118;2022-09-09T02:37:41;7.53;;;2.10;;
1154;SDS011;566;48.414;9.118;2022-09-09T02:40:11;3.97;;;1.42;;
1154;SDS011;566;48.414;9.118;2022-09-09T02:42:43;6.75;;;1.60;;
1154;SDS011;566;48.414;9.118;2022-09-09T02:45:12;8.32;;;1.65;;
1154;SDS011;566;48.414;9.118;2022-09-09T02:47:43;6.80;;;1.55;;
1154;SDS011;566;48.414;9.118;2022-09-09T02:55:56;4.80;;;1.52;;
1154;SDS011;566;48.414;9.118;2022-09-09T02:58:27;6.32;;;1.73;;
1154;SDS011;566;48.414;9.118;2022-09-09T03:00:53;6.65;;;1.60;;
1154;SDS011;566;48.414;9.118;2022-09-09T03:03:19;5.18;;;1.55;;
1154;SDS011;566;48.414;9.118;2022-09-09T03:05:46;5.90;;;1.48;;
1154;SDS011;566;48.414;9.118;2022-09-09T03:08:12;4.13;;;1.50;;
1154;SDS011;566;48.414;9.118;2022-09-09T03:10:38;6.13;;;1.42;;
1154;SDS011;566;48.414;9.118;2022-09-09T03:13:04;5.03;;;1.50;;
1154;SDS011;566;48.414;9.118;2022-09-09T03:15:31;5.88;;;1.75;;
1154;SDS011;566;48.414;9.118;2022-09-09T03:17:57;7.25;;;1.63;;
1154;SDS011;566;48.414;9.118;2022-09-09T03:20:27;6.63;;;2.00;;
1154;SDS011;566;48.414;9.118;2022-09-09T03:22:54;6.63;;;1.75;;
1154;SDS011;566;48.414;9.118;2022-09-09T03:25:20;7.25;;;2.10;;
1154;SDS011;566;48.414;9.118;2022-09-09T03:27:49;4.43;;;1.70;;
1154;SDS011;566;48.414;9.118;2022-09-09T03:30:15;6.93;;;2.00;;
1154;SDS011;566;48.414;9.118;2022-09-09T03:32:41;5.47;;;1.98;;
1154;SDS011;566;48.414;9.118;2022-09-09T03:35:13;5.18;;;1.70;;
1154;SDS011;566;48.414;9.118;2022-09-09T03:37:44;7.30;;;2.65;;
1154;SDS011;566;48.414;9.118;2022-09-09T03:40:10;4.28;;;2.00;;
1154;SDS011;566;48.414;9.118;2022-09-09T03:42:37;7.93;;;2.10;;
1154;SDS011;566;48.414;9.118;2022-09-09T03:45:04;8.65;;;2.20;;
1154;SDS011;566;48.414;9.118;2022-09-09T03:47:31;8.20;;;2.10;;
1154;SDS011;566;48.414;9.118;2022-09-09T03:49:56;8.32;;;2.60;;
1154;SDS011;566;48.414;9.118;2022-09-09T03:52:22;7.60;;;2.63;;
1154;SDS011;566;48.414;9.118;2022-09-09T03:54:53;7.20;;;2.72;;
1154;SDS011;566;48.414;9.118;2022-09-09T03:57:19;9.07;;;2.47;;
1154;SDS011;566;48.414;9.118;2022-09-09T03:59:45;10.07;;;2.63;;
1154;SDS011;566;48.414;9.118;2022-09-09T04:02:11;6.53;;;2.35;;
1154;SDS011;566;48.414;9.118;2022-09-09T04:04:40;7.65;;;2.22;;
1154;SDS011;566;48.414;9.118;2022-09-09T04:07:06;9.63;;;2.70;;
1154;SDS011;566;48.414;9.118;2022-09-09T04:09:32;7.07;;;2.53;;
1154;SDS011;566;48.414;9.118;2022-09-09T04:11:58;7.57;;;2.75;;
1154;SDS011;566;48.414;9.118;2022-09-09T04:14:25;8.60;;;4.43;;
1154;SDS011;566;48.414;9.118;2022-09-09T04:16:56;6.63;;;2.63;;
1154;SDS011;566;48.414;9.118;2022-09-09T04:19:24;7.25;;;2.35;;
1154;SDS011;566;48.414;9.118;2022-09-09T04:21:50;9.48;;;3.33;;
1154;SDS011;566;48.414;9.118;2022-09-09T04:24:18;9.80;;;3.30;;
1154;SDS011;566;48.414;9.118;2022-09-09T04:26:44;5.97;;;2.70;;
1154;SDS011;566;48.414;9.118;2022-09-09T04:29:10;6.32;;;3.00;;
1154;SDS011;566;48.414;9.118;2022-09-09T04:31:36;8.93;;;2.97;;
1154;SDS011;566;48.414;9.118;2022-09-09T04:34:06;11.05;;;3.03;;
1154;SDS011;566;48.414;9.118;2022-09-09T04:36:33;8.60;;;3.42;;
1154;SDS011;566;48.414;9.118;2022-09-09T04:39:00;8.20;;;3.17;;
1154;SDS011;566;48.414;9.118;2022-09-09T04:41:26;5.75;;;2.80;;
1154;SDS011;566;48.414;9.118;2022-09-09T04:43:52;10.23;;;3.03;;
1154;SDS011;566;48.414;9.118;2022-09-09T04:46:18;5.40;;;3.10;;
1154;SDS011;566;48.414;9.118;2022-09-09T04:48:45;6.32;;;3.25;;
1154;SDS011;566;48.414;9.118;2022-09-09T04:51:11;6.43;;;2.53;;
1154;SDS011;566;48.414;9.118;2022-09-09T04:53:38;8.45;;;3.10;;
1154;SDS011;566;48.414;9.118;2022-09-09T04:56:09;8.07;;;2.60;;
1154;SDS011;566;48.414;9.118;2022-09-09T04:58:37;8.07;;;2.40;;
1154;SDS011;566;48.414;9.118;2022-09-09T05:01:09;5.53;;;2.50;;
1154;SDS011;566;48.414;9.118;2022-09-09T05:03:48;9.05;;;2.70;;
1154;SDS011;566;48.414;9.118;2022-09-09T05:06:15;7.63;;;3.10;;
1154;SDS011;566;48.414;9.118;2022-09-09T05:08:42;6.55;;;2.63;;
1154;SDS011;566;48.414;9.118;2022-09-09T05:11:13;9.95;;;2.65;;
1154;SDS011;566;48.414;9.118;2022-09-09T05:13:41;7.35;;;2.67;;
1154;SDS011;566;48.414;9.118;2022-09-09T05:16:07;8.13;;;2.65;;
1154;SDS011;566;48.414;9.118;2022-09-09T05:18:36;11.05;;;2.70;;
1154;SDS011;566;48.414;9.118;2022-09-09T05:21:04;9.10;;;2.63;;
1154;SDS011;566;48.414;9.118;2022-09-09T05:23:31;7.65;;;2.20;;
1154;SDS011;566;48.414;9.118;2022-09-09T05:25:58;10.18;;;2.85;;
1154;SDS011;566;48.414;9.118;2022-09-09T05:28:25;5.75;;;2.17;;
1154;SDS011;566;48.414;9.118;2022-09-09T05:31:01;4.60;;;1.98;;
1154;SDS011;566;48.414;9.118;2022-09-09T05:33:30;5.68;;;2.10;;
1154;SDS011;566;48.414;9.118;2022-09-09T05:38:26;10.63;;;2.67;;
1154;SDS011;566;48.414;9.118;2022-09-09T05:40:55;9.52;;;2.40;;
1154;SDS011;566;48.414;9.118;2022-09-09T05:43:24;5.90;;;2.05;;
1154;SDS011;566;48.414;9.118;2022-09-09T05:46:00;6.72;;;2.42;;
1154;SDS011;566;48.414;9.118;2022-09-09T05:48:33;8.10;;;2.17;;
1154;SDS011;566;48.414;9.118;2022-09-09T05:50:59;5.50;;;1.80;;
1154;SDS011;566;48.414;9.118;2022-09-09T05:53:28;7.10;;;1.90;;
1154;SDS011;566;48.414;9.118;2022-09-09T05:58:31;9.05;;;2.58;;
1154;SDS011;566;48.414;9.118;2022-09-09T06:01:04;6.75;;;1.83;;
1154;SDS011;566;48.414;9.118;2022-09-09T06:03:32;6.13;;;2.00;;
1154;SDS011;566;48.414;9.118;2022-09-09T06:06:00;5.07;;;1.60;;
1154;SDS011;566;48.414;9.118;2022-09-09T06:08:27;7.50;;;1.60;;
1154;SDS011;566;48.414;9.118;2022-09-09T06:10:53;6.00;;;2.10;;
1154;SDS011;566;48.414;9.118;2022-09-09T06:13:18;7.03;;;1.90;;
1154;SDS011;566;48.414;9.118;2022-09-09T06:15:50;7.50;;;1.75;;
1154;SDS011;566;48.414;9.118;2022-09-09T06:18:17;6.10;;;1.70;;
1154;SDS011;566;48.414;9.118;2022-09-09T06:20:52;5.43;;;1.60;;
1154;SDS011;566;48.414;9.118;2022-09-09T06:23:29;7.20;;;1.80;;
1154;SDS011;566;48.414;9.118;2022-09-09T06:26:09;7.43;;;1.55;;
1154;SDS011;566;48.414;9.118;2022-09-09T06:28:42;5.60;;;1.88;;
1154;SDS011;566;48.414;9.118;2022-09-09T06:31:09;7.03;;;1.80;;
1154;SDS011;566;48.414;9.118;2022-09-09T06:33:36;6.65;;;1.73;;
1154;SDS011;566;48.414;9.118;2022-09-09T06:36:07;7.90;;;1.75;;
1154;SDS011;566;48.414;9.118;2022-09-09T06:38:43;5.05;;;1.52;;
1154;SDS011;566;48.414;9.118;2022-09-09T06:41:09;6.05;;;1.60;;
1154;SDS011;566;48.414;9.118;2022-09-09T06:43:37;7.72;;;1.58;;
1154;SDS011;566;48.414;9.118;2022-09-09T06:48:31;7.25;;;1.88;;
1154;SDS011;566;48.414;9.118;2022-09-09T06:53:27;6.10;;;1.80;;
1154;SDS011;566;48.414;9.118;2022-09-09T06:55:53;7.68;;;1.58;;
1154;SDS011;566;48.414;9.118;2022-09-09T06:58:19;5.82;;;1.90;;
1154;SDS011;566;48.414;9.118;2022-09-09T07:00:47;4.88;;;1.50;;
1154;SDS011;566;48.414;9.118;2022-09-09T07:03:12;4.22;;;1.30;;
1154;SDS011;566;48.414;9.118;2022-09-09T07:05:38;5.45;;;1.58;;
1154;SDS011;566;48.414;9.118;2022-09-09T07:08:04;5.93;;;1.33;;
1154;SDS011;566;48.414;9.118;2022-09-09T07:10:33;8.82;;;1.80;;
1154;SDS011;566;48.414;9.118;2022-09-09T07:12:59;8.57;;;1.45;;
1154;SDS011;566;48.414;9.118;2022-09-09T07:15:26;5.20;;;1.48;;
1154;SDS011;566;48.414;9.118;2022-09-09T07:17:52;7.35;;;1.52;;
1154;SDS011;566;48.414;9.118;2022-09-09T07:20:19;3.63;;;1.13;;
1154;SDS011;566;48.414;9.118;2022-09-09T07:22:45;5.90;;;1.23;;
1154;SDS011;566;48.414;9.118;2022-09-09T07:25:11;3.67;;;1.17;;
1154;SDS011;566;48.414;9.118;2022-09-09T07:27:36;6.65;;;1.30;;
1154;SDS011;566;48.414;9.118;2022-09-09T07:30:02;11.32;;;2.13;;
1154;SDS011;566;48.414;9.118;2022-09-09T07:32:29;4.72;;;1.55;;
1154;SDS011;566;48.414;9.118;2022-09-09T07:34:55;4.75;;;1.30;;
1154;SDS011;566;48.414;9.118;2022-09-09T07:37:23;5.85;;;1.50;;
1154;SDS011;566;48.414;9.118;2022-09-09T07:39:49;7.85;;;1.40;;
1154;SDS011;566;48.414;9.118;2022-09-09T07:42:16;5.78;;;1.30;;
1154;SDS011;566;48.414;9.118;2022-09-09T07:44:41;7.05;;;1.30;;
1154;SDS011;566;48.414;9.118;2022-09-09T07:47:07;8.45;;;1.50;;
1154;SDS011;566;48.414;9.118;2022-09-09T07:49:33;6.78;;;1.55;;
1154;SDS011;566;48.414;9.118;2022-09-09T07:52:02;5.75;;;1.27;;
1154;SDS011;566;48.414;9.118;2022-09-09T07:54:30;6.60;;;1.50;;
1154;SDS011;566;48.414;9.118;2022-09-09T07:56:56;7.32;;;1.48;;
1154;SDS011;566;48.414;9.118;2022-09-09T07:59:21;5.93;;;1.48;;
1154;SDS011;566;48.414;9.118;2022-09-09T08:01:48;3.97;;;1.45;;
1154;SDS011;566;48.414;9.118;2022-09-09T08:04:18;9.45;;;1.50;;
1154;SDS011;566;48.414;9.118;2022-09-09T08:06:52;6.18;;;1.40;;
1154;SDS011;566;48.414;9.118;2022-09-09T08:09:20;6.57;;;1.50;;
1154;SDS011;566;48.414;9.118;2022-09-09T08:11:53;7.38;;;1.40;;
1154;SDS011;566;48.414;9.118;2022-09-09T08:14:21;8.43;;;1.67;;
1154;SDS011;566;48.414;9.118;2022-09-09T08:16:48;5.95;;;1.40;;
1154;SDS011;566;48.414;9.118;2022-09-09T08:19:18;5.47;;;1.23;;
1154;SDS011;566;48.414;9.118;2022-09-09T08:21:43;6.18;;;1.30;;
1154;SDS011;566;48.414;9.118;2022-09-09T08:24:10;9.20;;;1.73;;
1154;SDS011;566;48.414;9.118;2022-09-09T08:26:37;8.52;;;1.55;;
1154;SDS011;566;48.414;9.118;2022-09-09T08:29:06;5.75;;;1.20;;
1154;SDS011;566;48.414;9.118;2022-09-09T08:31:36;7.50;;;1.48;;
1154;SDS011;566;48.414;9.118;2022-09-09T08:34:04;7.60;;;1.60;;
1154;SDS011;566;48.414;9.118;2022-09-09T08:36:34;8.30;;;1.63;;
1154;SDS011;566;48.414;9.118;2022-09-09T08:39:02;9.32;;;2.00;;
1154;SDS011;566;48.414;9.118;2022-09-09T08:52:31;6.63;;;1.70;;
1154;SDS011;566;48.414;9.118;2022-09-09T08:55:11;5.43;;;1.15;;
1154;SDS011;566;48.414;9.118;2022-09-09T08:57:51;5.95;;;1.35;;
1154;SDS011;566;48.414;9.118;2022-09-09T09:00:19;5.78;;;1.50;;
1154;SDS011;566;48.414;9.118;2022-09-09T09:05:47;5.22;;;1.20;;
1154;SDS011;566;48.414;9.118;2022-09-09T09:08:36;3.15;;;1.02;;
1154;SDS011;566;48.414;9.118;2022-09-09T09:11:21;5.25;;;1.38;;
1154;SDS011;566;48.414;9.118;2022-09-09T09:13:54;5.95;;;1.17;;
1154;SDS011;566;48.414;9.118;2022-09-09T09:16:49;6.45;;;1.33;;
1154;SDS011;566;48.414;9.118;2022-09-09T09:19:18;7.75;;;1.67;;
1154;SDS011;566;48.414;9.118;2022-09-09T09:25:13;6.60;;;1.20;;
1154;SDS011;566;48.414;9.118;2022-09-09T09:28:29;5.93;;;1.40;;
1154;SDS011;566;48.414;9.118;2022-09-09T09:30:42;5.43;;;1.10;;
1154;SDS011;566;48.414;9.118;2022-09-09T09:35:39;4.97;;;1.13;;
1154;SDS011;566;48.414;9.118;2022-09-09T09:38:26;5.78;;;1.10;;
1154;SDS011;566;48.414;9.118;2022-09-09T09:40:56;10.13;;;1.20;;
1154;SDS011;566;48.414;9.118;2022-09-09T09:43:29;5.80;;;1.52;;
1154;SDS011;566;48.414;9.118;2022-09-09T09:45:57;5.85;;;1.40;;
1154;SDS011;566;48.414;9.118;2022-09-09T09:48:23;5.88;;;1.23;;
1154;SDS011;566;48.414;9.118;2022-09-09T09:50:54;4.38;;;1.00;;
1154;SDS011;566;48.414;9.118;2022-09-09T09:53:27;6.75;;;1.48;;
1154;SDS011;566;48.414;9.118;2022-09-09T09:56:03;6.30;;;1.25;;
1154;SDS011;566;48.414;9.118;2022-09-09T10:01:19;4.15;;;1.30;;
1154;SDS011;566;48.414;9.118;2022-09-09T10:03:52;4.95;;;1.30;;
1154;SDS011;566;48.414;9.118;2022-09-09T10:06:34;7.15;;;1.33;;
1154;SDS011;566;48.414;9.118;2022-09-09T10:09:03;5.85;;;1.30;;
1154;SDS011;566;48.414;9.118;2022-09-09T10:11:56;6.68;;;1.58;;
1154;SDS011;566;48.414;9.118;2022-09-09T10:17:53;7.32;;;1.73;;
1154;SDS011;566;48.414;9.118;2022-09-09T10:35:12;6.00;;;1.30;;
1154;SDS011;566;48.414;9.118;2022-09-09T10:51:43;5.18;;;1.00;;
1154;SDS011;566;48.414;9.118;2022-09-09T10:57:10;4.68;;;1.00;;
1154;SDS011;566;48.414;9.118;2022-09-09T10:59:52;4.60;;;1.10;;
1154;SDS011;566;48.414;9.118;2022-09-09T11:02:28;3.75;;;0.82;;
1154;SDS011;566;48.414;9.118;2022-09-09T11:07:42;4.57;;;1.00;;
1154;SDS011;566;48.414;9.118;2022-09-09T11:12:46;7.35;;;1.80;;
1154;SDS011;566;48.414;9.118;2022-09-09T11:15:20;3.80;;;0.93;;
1154;SDS011;566;48.414;9.118;2022-09-09T11:18:14;5.80;;;1.10;;
1154;SDS011;566;48.414;9.118;2022-09-09T11:20:44;4.88;;;1.20;;
1154;SDS011;566;48.414;9.118;2022-09-09T11:23:15;5.07;;;1.10;;
1154;SDS011;566;48.414;9.118;2022-09-09T11:25:51;3.15;;;0.90;;
1154;SDS011;566;48.414;9.118;2022-09-09T11:28:29;5.45;;;0.90;;
1154;SDS011;566;48.414;9.118;2022-09-09T11:42:29;4.93;;;1.25;;
1154;SDS011;566;48.414;9.118;2022-09-09T11:44:55;3.47;;;0.80;;
1154;SDS011;566;48.414;9.118;2022-09-09T11:47:26;13.38;;;1.90;;
1154;SDS011;566;48.414;9.118;2022-09-09T11:50:09;2.63;;;0.60;;
1154;SDS011;566;48.414;9.118;2022-09-09T11:53:02;4.10;;;0.70;;
1154;SDS011;566;48.414;9.118;2022-09-09T11:55:38;5.00;;;0.88;;
1154;SDS011;566;48.414;9.118;2022-09-09T11:58:05;4.10;;;1.25;;
1154;SDS011;566;48.414;9.118;2022-09-09T12:00:41;3.33;;;0.90;;
1154;SDS011;566;48.414;9.118;2022-09-09T12:06:11;8.80;;;1.42;;
1154;SDS011;566;48.414;9.118;2022-09-09T12:08:40;3.17;;;0.88;;
1154;SDS011;566;48.414;9.118;2022-09-09T12:11:08;3.33;;;0.70;;
1154;SDS011;566;48.414;9.118;2022-09-09T12:13:33;4.22;;;1.00;;
1154;SDS011;566;48.414;9.118;2022-09-09T12:15:59;4.28;;;1.00;;
1154;SDS011;566;48.414;9.118;2022-09-09T12:18:37;2.45;;;0.75;;
1154;SDS011;566;48.414;9.118;2022-09-09T12:21:15;4.85;;;1.00;;
1154;SDS011;566;48.414;9.118;2022-09-09T12:26:32;5.85;;;1.55;;
1154;SDS011;566;48.414;9.118;2022-09-09T12:29:05;7.13;;;1.02;;
1154;SDS011;566;48.414;9.118;2022-09-09T12:34:36;5.40;;;1.15;;
1154;SDS011;566;48.414;9.118;2022-09-09T12:37:29;4.90;;;1.13;;
1154;SDS011;566;48.414;9.118;2022-09-09T12:40:24;3.80;;;1.10;;
1154;SDS011;566;48.414;9.118;2022-09-09T12:42:54;4.95;;;1.30;;
1154;SDS011;566;48.414;9.118;2022-09-09T12:45:24;6.03;;;1.30;;
1154;SDS011;566;48.414;9.118;2022-09-09T12:47:58;6.57;;;1.27;;
1154;SDS011;566;48.414;9.118;2022-09-09T12:50:30;10.75;;;1.30;;
1154;SDS011;566;48.414;9.118;2022-09-09T12:53:02;6.80;;;1.25;;
1154;SDS011;566;48.414;9.118;2022-09-09T12:55:35;4.45;;;0.98;;
1154;SDS011;566;48.414;9.118;2022-09-09T12:58:02;6.72;;;1.30;;
1154;SDS011;566;48.414;9.118;2022-09-09T13:00:31;3.75;;;0.80;;
1154;SDS011;566;48.414;9.118;2022-09-09T13:02:59;4.25;;;1.23;;
1154;SDS011;566;48.414;9.118;2022-09-09T13:05:27;5.90;;;1.13;;
1154;SDS011;566;48.414;9.118;2022-09-09T13:08:05;4.50;;;1.20;;
1154;SDS011;566;48.414;9.118;2022-09-09T13:10:37;4.40;;;1.05;;
1154;SDS011;566;48.414;9.118;2022-09-09T13:13:40;5.45;;;1.27;;
1154;SDS011;566;48.414;9.118;2022-09-09T13:18:57;7.05;;;1.70;;
1154;SDS011;566;48.414;9.118;2022-09-09T13:21:32;7.65;;;1.42;;
1154;SDS011;566;48.414;9.118;2022-09-09T13:24:03;5.00;;;1.45;;
1154;SDS011;566;48.414;9.118;2022-09-09T13:26:32;5.68;;;1.00;;
1154;SDS011;566;48.414;9.118;2022-09-09T13:29:17;4.65;;;1.02;;
1154;SDS011;566;48.414;9.118;2022-09-09T13:31:44;4.72;;;0.90;;
1154;SDS011;566;48.414;9.118;2022-09-09T13:34:25;6.97;;;1.30;;
1154;SDS011;566;48.414;9.118;2022-09-09T13:37:00;5.10;;;1.17;;
1154;SDS011;566;48.414;9.118;2022-09-09T13:39:30;5.53;;;1.00;;
1154;SDS011;566;48.414;9.118;2022-09-09T13:41:59;4.07;;;0.98;;
1154;SDS011;566;48.414;9.118;2022-09-09T13:47:01;7.70;;;1.77;;
1154;SDS011;566;48.414;9.118;2022-09-09T13:49:42;4.07;;;0.90;;
1154;SDS011;566;48.414;9.118;2022-09-09T13:52:11;4.15;;;0.80;;
1154;SDS011;566;48.414;9.118;2022-09-09T13:54:39;6.07;;;0.70;;
1154;SDS011;566;48.414;9.118;2022-09-09T13:57:13;4.15;;;0.90;;
1154;SDS011;566;48.414;9.118;2022-09-09T13:59:45;4.53;;;1.00;;
1154;SDS011;566;48.414;9.118;2022-09-09T14:02:13;4.60;;;0.93;;
1154;SDS011;566;48.414;9.118;2022-09-09T14:04:39;4.95;;;1.13;;
1154;SDS011;566;48.414;9.118;2022-09-09T14:07:08;6.80;;;1.08;;
1154;SDS011;566;48.414;9.118;2022-09-09T14:09:41;5.70;;;1.02;;
1154;SDS011;566;48.414;9.118;2022-09-09T14:12:11;6.25;;;1.13;;
1154;SDS011;566;48.414;9.118;2022-09-09T14:14:37;2.80;;;0.80;;
1154;SDS011;566;48.414;9.118;2022-09-09T14:17:03;6.07;;;1.13;;
1154;SDS011;566;48.414;9.118;2022-09-09T14:19:31;3.15;;;0.80;;
1154;SDS011;566;48.414;9.118;2022-09-09T14:21:57;3.75;;;0.80;;
1154;SDS011;566;48.414;9.118;2022-09-09T14:24:23;4.90;;;1.10;;
1154;SDS011;566;48.414;9.118;2022-09-09T14:26:50;4.78;;;1.13;;
1154;SDS011;566;48.414;9.118;2022-09-09T14:29:16;3.60;;;1.08;;
1154;SDS011;566;48.414;9.118;2022-09-09T14:31:41;7.20;;;1.48;;
1154;SDS011;566;48.414;9.118;2022-09-09T14:34:07;3.42;;;0.90;;
1154;SDS011;566;48.414;9.118;2022-09-09T14:36:34;4.15;;;0.80;;
1154;SDS011;566;48.414;9.118;2022-09-09T14:39:00;4.40;;;1.08;;
1154;SDS011;566;48.414;9.118;2022-09-09T14:41:26;4.38;;;0.80;;
1154;SDS011;566;48.414;9.118;2022-09-09T14:43:54;4.15;;;0.80;;
1154;SDS011;566;48.414;9.118;2022-09-09T14:46:20;3.63;;;0.95;;
1154;SDS011;566;48.414;9.118;2022-09-09T14:48:46;6.35;;;1.27;;
1154;SDS011;566;48.414;9.118;2022-09-09T14:51:17;3.45;;;1.17;;
1154;SDS011;566;48.414;9.118;2022-09-09T14:53:47;4.18;;;1.10;;
1154;SDS011;566;48.414;9.118;2022-09-09T14:56:17;4.05;;;1.00;;
1154;SDS011;566;48.414;9.118;2022-09-09T14:58:45;4.13;;;0.95;;
1154;SDS011;566;48.414;9.118;2022-09-09T15:01:13;4.35;;;0.90;;
1154;SDS011;566;48.414;9.118;2022-09-09T15:03:41;3.53;;;0.98;;
1154;SDS011;566;48.414;9.118;2022-09-09T15:06:11;4.57;;;1.00;;
1154;SDS011;566;48.414;9.118;2022-09-09T15:08:40;7.38;;;1.35;;
1154;SDS011;566;48.414;9.118;2022-09-09T15:11:07;3.58;;;0.90;;
1154;SDS011;566;48.414;9.118;2022-09-09T15:13:34;4.78;;;1.10;;
1154;SDS011;566;48.414;9.118;2022-09-09T15:16:09;3.50;;;0.98;;
1154;SDS011;566;48.414;9.118;2022-09-09T15:18:39;5.07;;;1.00;;
1154;SDS011;566;48.414;9.118;2022-09-09T15:21:08;5.78;;;1.33;;
1154;SDS011;566;48.414;9.118;2022-09-09T15:23:37;4.32;;;0.98;;
1154;SDS011;566;48.414;9.118;2022-09-09T15:26:03;3.17;;;0.77;;
1154;SDS011;566;48.414;9.118;2022-09-09T15:28:31;1.08;;;0.60;;
1154;SDS011;566;48.414;9.118;2022-09-09T15:31:06;2.83;;;0.90;;
1154;SDS011;566;48.414;9.118;2022-09-09T15:33:36;3.10;;;0.82;;
1154;SDS011;566;48.414;9.118;2022-09-09T15:36:13;4.05;;;0.60;;
1154;SDS011;566;48.414;9.118;2022-09-09T15:38:43;4.88;;;0.70;;
1154;SDS011;566;48.414;9.118;2022-09-09T15:41:12;3.13;;;0.82;;
1154;SDS011;566;48.414;9.118;2022-09-09T15:43:39;1.38;;;0.50;;
1154;SDS011;566;48.414;9.118;2022-09-09T15:46:53;2.72;;;0.73;;
1154;SDS011;566;48.414;9.118;2022-09-09T15:51:34;2.33;;;0.80;;
1154;SDS011;566;48.414;9.118;2022-09-09T15:53:59;1.52;;;0.70;;
1154;SDS011;566;48.414;9.118;2022-09-09T15:56:26;1.45;;;0.50;;
1154;SDS011;566;48.414;9.118;2022-09-09T15:58:54;2.40;;;0.63;;
1154;SDS011;566;48.414;9.118;2022-09-09T16:01:20;0.90;;;0.50;;
1154;SDS011;566;48.414;9.118;2022-09-09T16:03:46;1.63;;;0.60;;
1154;SDS011;566;48.414;9.118;2022-09-09T16:06:15;3.38;;;0.70;;
1154;SDS011;566;48.414;9.118;2022-09-09T16:08:47;5.40;;;0.82;;
1154;SDS011;566;48.414;9.118;2022-09-09T16:11:19;2.53;;;0.77;;
1154;SDS011;566;48.414;9.118;2022-09-09T16:13:48;3.60;;;0.80;;
1154;SDS011;566;48.414;9.118;2022-09-09T16:16:15;3.85;;;0.90;;
1154;SDS011;566;48.414;9.118;2022-09-09T16:18:43;3.88;;;1.15;;
1154;SDS011;566;48.414;9.118;2022-09-09T16:21:23;2.08;;;0.70;;
1154;SDS011;566;48.414;9.118;2022-09-09T16:23:49;2.92;;;0.88;;
1154;SDS011;566;48.414;9.118;2022-09-09T16:26:17;2.15;;;0.65;;
1154;SDS011;566;48.414;9.118;2022-09-09T16:28:45;2.85;;;0.85;;
1154;SDS011;566;48.414;9.118;2022-09-09T16:31:17;2.65;;;0.80;;
1154;SDS011;566;48.414;9.118;2022-09-09T16:33:45;7.57;;;1.20;;
1154;SDS011;566;48.414;9.118;2022-09-09T16:36:12;3.30;;;0.95;;
1154;SDS011;566;48.414;9.118;2022-09-09T16:38:42;3.45;;;0.90;;
1154;SDS011;566;48.414;9.118;2022-09-09T16:41:09;3.83;;;0.93;;
1154;SDS011;566;48.414;9.118;2022-09-09T16:43:39;3.03;;;0.85;;
1154;SDS011;566;48.414;9.118;2022-09-09T16:46:12;2.30;;;0.70;;
1154;SDS011;566;48.414;9.118;2022-09-09T16:48:40;3.17;;;1.08;;
1154;SDS011;566;48.414;9.118;2022-09-09T16:51:09;4.03;;;0.90;;
1154;SDS011;566;48.414;9.118;2022-09-09T16:53:42;3.55;;;0.80;;
1154;SDS011;566;48.414;9.118;2022-09-09T16:56:09;4.55;;;0.80;;
1154;SDS011;566;48.414;9.118;2022-09-09T16:58:37;2.08;;;0.82;;
1154;SDS011;566;48.414;9.118;2022-09-09T17:01:04;5.88;;;2.28;;
1154;SDS011;566;48.414;9.118;2022-09-09T17:03:30;4.43;;;1.40;;
1154;SDS011;566;48.414;9.118;2022-09-09T17:05:57;7.72;;;2.60;;
1154;SDS011;566;48.414;9.118;2022-09-09T17:08:26;7.90;;;3.10;;
1154;SDS011;566;48.414;9.118;2022-09-09T17:10:54;9.05;;;3.05;;
1154;SDS011;566;48.414;9.118;2022-09-09T17:13:19;4.75;;;1.80;;
1154;SDS011;566;48.414;9.118;2022-09-09T17:15:45;7.32;;;1.52;;
1154;SDS011;566;48.414;9.118;2022-09-09T17:18:11;4.00;;;1.15;;
1154;SDS011;566;48.414;9.118;2022-09-09T17:20:41;2.70;;;1.10;;
1154;SDS011;566;48.414;9.118;2022-09-09T17:23:07;6.25;;;1.08;;
1154;SDS011;566;48.414;9.118;2022-09-09T17:25:34;3.97;;;0.93;;
1154;SDS011;566;48.414;9.118;2022-09-09T17:28:00;7.05;;;1.73;;
1154;SDS011;566;48.414;9.118;2022-09-09T17:30:29;5.72;;;1.58;;
1154;SDS011;566;48.414;9.118;2022-09-09T17:32:58;5.00;;;1.38;;
1154;SDS011;566;48.414;9.118;2022-09-09T17:35:25;3.33;;;1.10;;
1154;SDS011;566;48.414;9.118;2022-09-09T17:37:52;6.35;;;1.55;;
1154;SDS011;566;48.414;9.118;2022-09-09T17:40:19;3.30;;;1.17;;
1154;SDS011;566;48.414;9.118;2022-09-09T17:42:45;4.60;;;1.10;;
1154;SDS011;566;48.414;9.118;2022-09-09T17:45:12;4.85;;;1.27;;
1154;SDS011;566;48.414;9.118;2022-09-09T17:47:38;3.88;;;0.93;;
1154;SDS011;566;48.414;9.118;2022-09-09T17:50:04;4.97;;;1.10;;
1154;SDS011;566;48.414;9.118;2022-09-09T17:52:31;5.78;;;1.88;;
1154;SDS011;566;48.414;9.118;2022-09-09T17:54:57;7.63;;;2.50;;
1154;SDS011;566;48.414;9.118;2022-09-09T17:57:23;7.35;;;2.63;;
1154;SDS011;566;48.414;9.118;2022-09-09T17:59:49;4.88;;;1.40;;
1154;SDS011;566;48.414;9.118;2022-09-09T18:02:18;2.75;;;1.17;;
1154;SDS011;566;48.414;9.118;2022-09-09T18:04:44;3.63;;;1.10;;
1154;SDS011;566;48.414;9.118;2022-09-09T18:07:11;5.70;;;1.02;;
1154;SDS011;566;48.414;9.118;2022-09-09T18:09:38;5.05;;;1.38;;
1154;SDS011;566;48.414;9.118;2022-09-09T18:12:04;2.90;;;1.02;;
1154;SDS011;566;48.414;9.118;2022-09-09T18:14:31;4.15;;;1.55;;